createdAt,value
2022-09-13T00:00:03.199Z,1005.76
2022-09-13T00:01:03.208Z,1005.79
2022-09-13T00:02:03.168Z,1005.78
2022-09-13T00:03:03.094Z,1005.82
2022-09-13T00:04:03.049Z,1005.77
2022-09-13T00:05:03.030Z,1005.76
2022-09-13T00:06:02.976Z,1005.71
2022-09-13T00:07:02.936Z,1005.73
2022-09-13T00:08:02.902Z,1005.75
2022-09-13T00:09:02.867Z,1005.74
2022-09-13T00:10:02.827Z,1005.70
2022-09-13T00:11:02.800Z,1005.62
2022-09-13T00:12:02.755Z,1005.57
2022-09-13T00:13:02.726Z,1005.58
2022-09-13T00:14:02.677Z,1005.53
2022-09-13T00:15:02.645Z,1005.51
2022-09-13T00:16:02.672Z,1005.50
2022-09-13T00:17:02.565Z,1005.48
2022-09-13T00:18:02.528Z,1005.39
2022-09-13T00:19:02.626Z,1005.36
2022-09-13T00:20:02.467Z,1005.35
2022-09-13T00:21:02.418Z,1005.34
2022-09-13T00:22:02.384Z,1005.34
2022-09-13T00:23:02.342Z,1005.32
2022-09-13T00:24:02.303Z,1005.30
2022-09-13T00:25:02.270Z,1005.32
2022-09-13T00:26:02.242Z,1005.37
2022-09-13T00:27:02.193Z,1005.34
2022-09-13T00:28:02.157Z,1005.34
2022-09-13T00:29:02.118Z,1005.32
2022-09-13T00:30:02.102Z,1005.28
2022-09-13T00:31:02.045Z,1005.21
2022-09-13T00:32:02.092Z,1005.25
2022-09-13T00:33:01.969Z,1005.23
2022-09-13T00:34:01.933Z,1005.25
2022-09-13T00:35:01.898Z,1005.29
2022-09-13T00:36:01.856Z,1005.28
2022-09-13T00:37:01.821Z,1005.29
2022-09-13T00:38:01.795Z,1005.31
2022-09-13T00:39:01.749Z,1005.34
2022-09-13T00:40:01.763Z,1005.36
2022-09-13T00:41:01.672Z,1005.37
2022-09-13T00:42:01.645Z,1005.39
2022-09-13T00:43:01.608Z,1005.41
2022-09-13T00:44:01.573Z,1005.37
2022-09-13T00:45:01.527Z,1005.40
2022-09-13T00:46:01.560Z,1005.36
2022-09-13T00:47:01.450Z,1005.37
2022-09-13T00:48:01.412Z,1005.39
2022-09-13T00:49:01.375Z,1005.43
2022-09-13T00:50:01.351Z,1005.40
2022-09-13T00:51:01.314Z,1005.43
2022-09-13T00:52:01.261Z,1005.44
2022-09-13T00:53:01.227Z,1005.38
2022-09-13T00:54:01.190Z,1005.43
2022-09-13T00:55:01.156Z,1005.36
2022-09-13T00:56:01.113Z,1005.34
2022-09-13T00:57:01.090Z,1005.32
2022-09-13T00:58:01.040Z,1005.34
2022-09-13T00:59:01.005Z,1005.36
2022-09-13T01:00:00.965Z,1005.35
2022-09-13T01:01:00.971Z,1005.36
2022-09-13T01:02:00.926Z,1005.34
2022-09-13T01:03:00.858Z,1005.32
2022-09-13T01:04:00.817Z,1005.34
2022-09-13T01:05:00.784Z,1005.30
2022-09-13T01:06:00.745Z,1005.26
2022-09-13T01:07:00.713Z,1005.27
2022-09-13T01:08:00.681Z,1005.25
2022-09-13T01:09:00.633Z,1005.24
2022-09-13T01:10:00.596Z,1005.26
2022-09-13T01:11:00.561Z,1005.25
2022-09-13T01:12:00.527Z,1005.26
2022-09-13T01:13:00.485Z,1005.25
2022-09-13T01:14:00.458Z,1005.30
2022-09-13T01:15:00.412Z,1005.28
2022-09-13T01:16:00.451Z,1005.33
2022-09-13T01:17:00.341Z,1005.35
2022-09-13T01:18:00.418Z,1005.37
2022-09-13T01:19:00.264Z,1005.39
2022-09-13T01:20:00.232Z,1005.39
2022-09-13T01:21:00.191Z,1005.38
2022-09-13T01:22:00.151Z,1005.37
2022-09-13T01:23:00.116Z,1005.30
2022-09-13T01:24:00.092Z,1005.34
2022-09-13T01:25:00.042Z,1005.39
2022-09-13T01:26:00.003Z,1005.39
2022-09-13T01:26:59.969Z,1005.37
2022-09-13T01:27:59.930Z,1005.38
2022-09-13T01:28:59.893Z,1005.35
2022-09-13T01:29:59.865Z,1005.34
2022-09-13T01:30:59.819Z,1005.32
2022-09-13T01:31:59.831Z,1005.31
2022-09-13T01:32:59.746Z,1005.28
2022-09-13T01:33:59.706Z,1005.26
2022-09-13T01:34:59.671Z,1005.27
2022-09-13T01:35:59.647Z,1005.26
2022-09-13T01:36:59.598Z,1005.23
2022-09-13T01:37:59.558Z,1005.22
2022-09-13T01:38:59.522Z,1005.21
2022-09-13T01:39:59.546Z,1005.15
2022-09-13T01:41:02.930Z,1005.19
2022-09-13T01:41:59.409Z,1005.14
2022-09-13T01:42:59.374Z,1005.14
2022-09-13T01:43:59.336Z,1005.14
2022-09-13T01:44:59.298Z,1005.13
2022-09-13T01:45:59.289Z,1005.11
2022-09-13T01:46:59.225Z,1005.12
2022-09-13T01:47:59.186Z,1005.09
2022-09-13T01:48:59.152Z,1005.10
2022-09-13T01:49:59.111Z,1005.12
2022-09-13T01:50:59.079Z,1005.10
2022-09-13T01:51:59.050Z,1005.09
2022-09-13T01:52:59.000Z,1005.11
2022-09-13T01:53:58.963Z,1005.10
2022-09-13T01:54:58.929Z,1005.11
2022-09-13T01:56:08.378Z,1005.09
2022-09-13T01:56:58.851Z,1005.11
2022-09-13T01:57:58.824Z,1005.05
2022-09-13T01:58:58.778Z,1005.08
2022-09-13T01:59:58.740Z,1005.02
2022-09-13T02:00:58.736Z,1005.02
2022-09-13T02:01:58.695Z,1004.97
2022-09-13T02:02:58.630Z,1005.00
2022-09-13T02:03:58.602Z,1005.02
2022-09-13T02:04:58.553Z,1005.05
2022-09-13T02:05:58.516Z,1005.04
2022-09-13T02:06:58.484Z,1005.05
2022-09-13T02:07:58.441Z,1005.02
2022-09-13T02:08:58.411Z,1005.08
2022-09-13T02:09:58.379Z,1005.04
2022-09-13T02:10:58.332Z,1005.03
2022-09-13T02:11:58.292Z,1005.08
2022-09-13T02:12:58.261Z,1005.07
2022-09-13T02:13:58.217Z,1005.03
2022-09-13T02:14:58.183Z,1005.06
2022-09-13T02:15:58.157Z,1005.06
2022-09-13T02:16:58.107Z,1005.09
2022-09-13T02:17:58.069Z,1005.07
2022-09-13T02:18:58.032Z,1005.06
2022-09-13T02:19:57.992Z,1005.04
2022-09-13T02:20:57.969Z,1005.05
2022-09-13T02:21:57.922Z,1005.05
2022-09-13T02:22:57.884Z,1005.04
2022-09-13T02:23:57.948Z,1005.01
2022-09-13T02:24:57.808Z,1005.01
2022-09-13T02:25:57.784Z,1005.01
2022-09-13T02:26:57.733Z,1005.03
2022-09-13T02:27:57.696Z,1005.00
2022-09-13T02:28:57.658Z,1005.03
2022-09-13T02:29:57.620Z,1005.05
2022-09-13T02:30:57.591Z,1005.03
2022-09-13T02:31:57.604Z,1005.04
2022-09-13T02:32:57.509Z,1005.04
2022-09-13T02:33:57.484Z,1005.05
2022-09-13T02:34:57.442Z,1005.06
2022-09-13T02:35:57.396Z,1005.03
2022-09-13T02:36:57.360Z,1004.99
2022-09-13T02:37:57.323Z,1004.99
2022-09-13T02:38:57.288Z,1004.98
2022-09-13T02:39:57.321Z,1004.98
2022-09-13T02:40:57.211Z,1004.98
2022-09-13T02:41:57.175Z,1004.93
2022-09-13T02:42:57.137Z,1004.98
2022-09-13T02:43:57.099Z,1004.97
2022-09-13T02:44:57.063Z,1004.94
2022-09-13T02:45:57.080Z,1004.92
2022-09-13T02:46:56.988Z,1004.91
2022-09-13T02:47:56.952Z,1004.92
2022-09-13T02:48:56.915Z,1004.95
2022-09-13T02:49:56.875Z,1004.95
2022-09-13T02:50:56.841Z,1004.97
2022-09-13T02:51:56.814Z,1004.97
2022-09-13T02:52:56.768Z,1004.97
2022-09-13T02:53:56.730Z,1004.93
2022-09-13T02:54:56.690Z,1004.97
2022-09-13T02:55:56.651Z,1004.97
2022-09-13T02:56:56.622Z,1005.02
2022-09-13T02:57:56.591Z,1005.05
2022-09-13T02:58:56.542Z,1005.10
2022-09-13T02:59:56.502Z,1005.08
2022-09-13T03:00:56.496Z,1005.08
2022-09-13T03:01:56.467Z,1005.09
2022-09-13T03:02:56.395Z,1005.11
2022-09-13T03:03:56.363Z,1005.12
2022-09-13T03:04:56.320Z,1005.12
2022-09-13T03:05:56.280Z,1005.14
2022-09-13T03:06:56.243Z,1005.21
2022-09-13T03:07:56.204Z,1005.15
2022-09-13T03:08:56.178Z,1005.18
2022-09-13T03:09:56.129Z,1005.18
2022-09-13T03:10:56.097Z,1005.16
2022-09-13T03:11:56.053Z,1005.15
2022-09-13T03:12:56.019Z,1005.20
2022-09-13T03:13:55.984Z,1005.19
2022-09-13T03:14:55.964Z,1005.18
2022-09-13T03:15:55.908Z,1005.20
2022-09-13T03:16:55.938Z,1005.21
2022-09-13T03:17:55.831Z,1005.19
2022-09-13T03:18:55.796Z,1005.21
2022-09-13T03:19:55.772Z,1005.22
2022-09-13T03:20:55.721Z,1005.21
2022-09-13T03:21:55.687Z,1005.17
2022-09-13T03:22:55.646Z,1005.20
2022-09-13T03:23:55.612Z,1005.18
2022-09-13T03:24:56.336Z,1005.19
2022-09-13T03:25:55.548Z,1005.18
2022-09-13T03:26:55.496Z,1005.15
2022-09-13T03:27:55.461Z,1005.13
2022-09-13T03:28:55.425Z,1005.11
2022-09-13T03:29:55.385Z,1005.10
2022-09-13T03:30:55.360Z,1005.06
2022-09-13T03:31:55.349Z,1005.09
2022-09-13T03:32:55.274Z,1005.05
2022-09-13T03:33:55.238Z,1005.07
2022-09-13T03:34:55.200Z,1005.09
2022-09-13T03:35:55.172Z,1005.05
2022-09-13T03:36:55.127Z,1005.07
2022-09-13T03:37:55.087Z,1005.06
2022-09-13T03:38:55.055Z,1005.08
2022-09-13T03:39:55.032Z,1005.05
2022-09-13T03:40:54.974Z,1005.00
2022-09-13T03:41:54.954Z,1004.94
2022-09-13T03:42:54.902Z,1004.92
2022-09-13T03:43:54.861Z,1004.88
2022-09-13T03:44:54.825Z,1004.85
2022-09-13T03:45:54.840Z,1004.80
2022-09-13T03:46:54.752Z,1004.77
2022-09-13T03:47:54.938Z,1004.77
2022-09-13T03:48:54.676Z,1004.78
2022-09-13T03:49:54.638Z,1004.76
2022-09-13T03:50:54.603Z,1004.80
2022-09-13T03:51:54.560Z,1004.81
2022-09-13T03:52:54.523Z,1004.80
2022-09-13T03:53:54.502Z,1004.79
2022-09-13T03:54:54.451Z,1004.75
2022-09-13T03:55:54.412Z,1004.75
2022-09-13T03:56:54.374Z,1004.71
2022-09-13T03:57:54.336Z,1004.74
2022-09-13T03:58:54.298Z,1004.71
2022-09-13T03:59:54.273Z,1004.73
2022-09-13T04:00:54.264Z,1004.71
2022-09-13T04:01:54.271Z,1004.71
2022-09-13T04:02:54.147Z,1004.70
2022-09-13T04:03:56.835Z,1004.74
2022-09-13T04:04:54.076Z,1004.71
2022-09-13T04:05:54.047Z,1004.69
2022-09-13T04:06:53.997Z,1004.68
2022-09-13T04:07:53.969Z,1004.69
2022-09-13T04:08:53.920Z,1004.74
2022-09-13T04:09:53.898Z,1004.71
2022-09-13T04:10:53.847Z,1004.68
2022-09-13T04:11:53.808Z,1004.69
2022-09-13T04:12:53.770Z,1004.68
2022-09-13T04:13:53.735Z,1004.66
2022-09-13T04:14:53.710Z,1004.68
2022-09-13T04:15:53.656Z,1004.66
2022-09-13T04:16:53.620Z,1004.68
2022-09-13T04:17:53.592Z,1004.69
2022-09-13T04:18:53.546Z,1004.70
2022-09-13T04:19:53.507Z,1004.70
2022-09-13T04:20:53.471Z,1004.72
2022-09-13T04:21:53.431Z,1004.71
2022-09-13T04:22:53.889Z,1004.68
2022-09-13T04:23:53.373Z,1004.72
2022-09-13T04:24:53.320Z,1004.74
2022-09-13T04:25:53.282Z,1004.76
2022-09-13T04:26:53.245Z,1004.80
2022-09-13T04:27:53.204Z,1004.80
2022-09-13T04:28:53.169Z,1004.85
2022-09-13T04:29:53.210Z,1004.84
2022-09-13T04:30:53.092Z,1004.86
2022-09-13T04:31:53.101Z,1004.82
2022-09-13T04:32:53.022Z,1004.81
2022-09-13T04:33:52.985Z,1004.87
2022-09-13T04:34:52.943Z,1004.85
2022-09-13T04:35:52.921Z,1004.82
2022-09-13T04:36:52.870Z,1004.84
2022-09-13T04:37:52.832Z,1004.88
2022-09-13T04:38:52.797Z,1004.86
2022-09-13T04:39:52.773Z,1004.86
2022-09-13T04:40:52.719Z,1004.85
2022-09-13T04:41:52.691Z,1004.86
2022-09-13T04:42:52.643Z,1004.89
2022-09-13T04:43:52.629Z,1004.81
2022-09-13T04:44:52.570Z,1004.82
2022-09-13T04:45:52.595Z,1004.83
2022-09-13T04:46:52.498Z,1004.84
2022-09-13T04:47:52.475Z,1004.84
2022-09-13T04:48:52.417Z,1004.86
2022-09-13T04:49:52.381Z,1004.88
2022-09-13T04:50:52.342Z,1004.87
2022-09-13T04:51:52.304Z,1004.89
2022-09-13T04:52:52.265Z,1004.89
2022-09-13T04:53:52.243Z,1004.90
2022-09-13T04:54:52.196Z,1004.93
2022-09-13T04:55:52.155Z,1004.92
2022-09-13T04:56:52.118Z,1004.91
2022-09-13T04:57:52.079Z,1004.97
2022-09-13T04:58:52.056Z,1004.98
2022-09-13T04:59:52.004Z,1004.92
2022-09-13T05:00:52.010Z,1004.91
2022-09-13T05:01:52.040Z,1004.94
2022-09-13T05:02:51.889Z,1004.91
2022-09-13T05:03:51.855Z,1004.92
2022-09-13T05:04:51.829Z,1004.91
2022-09-13T05:05:51.777Z,1004.91
2022-09-13T05:06:51.739Z,1004.91
2022-09-13T05:07:51.702Z,1004.91
2022-09-13T05:08:51.664Z,1004.92
2022-09-13T05:09:51.626Z,1005.01
2022-09-13T05:10:51.603Z,1005.02
2022-09-13T05:11:51.552Z,1005.07
2022-09-13T05:12:51.512Z,1005.10
2022-09-13T05:13:51.474Z,1005.16
2022-09-13T05:14:51.437Z,1005.08
2022-09-13T05:15:51.439Z,1005.05
2022-09-13T05:16:51.372Z,1005.06
2022-09-13T05:17:51.324Z,1005.00
2022-09-13T05:18:51.415Z,1005.03
2022-09-13T05:19:51.249Z,1005.04
2022-09-13T05:20:51.209Z,1004.96
2022-09-13T05:21:51.173Z,1004.94
2022-09-13T05:22:51.147Z,1004.91
2022-09-13T05:23:51.097Z,1004.92
2022-09-13T05:24:51.059Z,1004.95
2022-09-13T05:25:51.030Z,1004.97
2022-09-13T05:26:50.985Z,1005.00
2022-09-13T05:27:50.944Z,1005.00
2022-09-13T05:28:51.024Z,1005.02
2022-09-13T05:29:50.870Z,1005.01
2022-09-13T05:30:50.910Z,1005.03
2022-09-13T05:31:50.794Z,1005.07
2022-09-13T05:32:50.757Z,1005.09
2022-09-13T05:33:50.719Z,1005.06
2022-09-13T05:34:50.699Z,1004.98
2022-09-13T05:35:50.645Z,1004.98
2022-09-13T05:36:54.083Z,1004.93
2022-09-13T05:37:50.569Z,1004.90
2022-09-13T05:39:01.640Z,1004.91
2022-09-13T05:40:10.262Z,1004.99
2022-09-13T05:40:50.518Z,1005.00
2022-09-13T05:41:50.414Z,1005.01
2022-09-13T05:42:50.379Z,1004.99
2022-09-13T05:43:50.343Z,1005.02
2022-09-13T05:44:50.302Z,1005.05
2022-09-13T05:45:50.305Z,1005.07
2022-09-13T05:46:50.239Z,1005.09
2022-09-13T05:47:50.191Z,1005.12
2022-09-13T05:48:50.317Z,1005.10
2022-09-13T05:50:09.232Z,1005.13
2022-09-13T05:50:58.720Z,1005.16
2022-09-13T05:51:50.041Z,1005.13
2022-09-13T05:52:50.015Z,1005.12
2022-09-13T05:53:49.964Z,1005.09
2022-09-13T05:54:49.929Z,1005.11
2022-09-13T05:55:49.887Z,1005.11
2022-09-13T05:56:49.860Z,1005.07
2022-09-13T05:57:49.815Z,1005.09
2022-09-13T05:58:49.881Z,1005.07
2022-09-13T05:59:49.739Z,1005.05
2022-09-13T06:00:49.702Z,1005.04
2022-09-13T06:01:49.681Z,1005.06
2022-09-13T06:02:49.708Z,1005.05
2022-09-13T06:03:49.589Z,1005.08
2022-09-13T06:04:49.561Z,1005.08
2022-09-13T06:05:49.514Z,1005.04
2022-09-13T06:06:49.475Z,1005.06
2022-09-13T06:07:49.439Z,1005.06
2022-09-13T06:08:49.516Z,1005.08
2022-09-13T06:09:49.365Z,1005.08
2022-09-13T06:10:49.325Z,1005.12
2022-09-13T06:11:49.286Z,1005.13
2022-09-13T06:12:49.253Z,1005.13
2022-09-13T06:13:49.211Z,1005.14
2022-09-13T06:14:49.188Z,1005.18
2022-09-13T06:15:49.188Z,1005.22
2022-09-13T06:16:49.099Z,1005.23
2022-09-13T06:17:49.063Z,1005.22
2022-09-13T06:18:49.199Z,1005.22
2022-09-13T06:19:48.987Z,1005.26
2022-09-13T06:20:48.960Z,1005.21
2022-09-13T06:21:48.983Z,1005.22
2022-09-13T06:22:48.875Z,1005.20
2022-09-13T06:23:48.838Z,1005.22
2022-09-13T06:24:48.800Z,1005.22
2022-09-13T06:25:48.765Z,1005.23
2022-09-13T06:26:48.739Z,1005.23
2022-09-13T06:27:50.138Z,1005.23
2022-09-13T06:28:48.881Z,1005.26
2022-09-13T06:29:48.616Z,1005.24
2022-09-13T06:30:48.577Z,1005.23
2022-09-13T06:31:48.540Z,1005.24
2022-09-13T06:32:48.518Z,1005.23
2022-09-13T06:33:48.468Z,1005.22
2022-09-13T06:34:48.431Z,1005.28
2022-09-13T06:35:48.393Z,1005.20
2022-09-13T06:36:48.359Z,1005.19
2022-09-13T06:37:48.331Z,1005.23
2022-09-13T06:38:48.391Z,1005.24
2022-09-13T06:39:48.287Z,1005.24
2022-09-13T06:40:48.209Z,1005.23
2022-09-13T06:41:48.173Z,1005.27
2022-09-13T06:42:48.135Z,1005.26
2022-09-13T06:43:48.103Z,1005.23
2022-09-13T06:44:48.070Z,1005.22
2022-09-13T06:45:48.093Z,1005.25
2022-09-13T06:46:48.019Z,1005.24
2022-09-13T06:47:47.960Z,1005.24
2022-09-13T06:48:47.995Z,1005.24
2022-09-13T06:49:47.889Z,1005.25
2022-09-13T06:50:47.839Z,1005.22
2022-09-13T06:51:47.805Z,1005.21
2022-09-13T06:52:47.766Z,1005.22
2022-09-13T06:53:47.734Z,1005.19
2022-09-13T06:54:47.695Z,1005.17
2022-09-13T06:55:47.671Z,1005.10
2022-09-13T06:56:47.621Z,1005.13
2022-09-13T06:57:47.587Z,1005.11
2022-09-13T06:58:47.550Z,1005.10
2022-09-13T06:59:47.516Z,1005.08
2022-09-13T07:00:47.657Z,1005.04
2022-09-13T07:01:47.572Z,1005.02
2022-09-13T07:02:47.403Z,1005.01
2022-09-13T07:03:47.368Z,1005.04
2022-09-13T07:04:47.347Z,1005.03
2022-09-13T07:05:47.299Z,1005.06
2022-09-13T07:06:47.272Z,1005.08
2022-09-13T07:07:47.225Z,1005.08
2022-09-13T07:08:47.184Z,1005.08
2022-09-13T07:09:47.233Z,1005.10
2022-09-13T07:10:47.116Z,1005.08
2022-09-13T07:11:47.083Z,1005.05
2022-09-13T07:12:47.052Z,1005.08
2022-09-13T07:13:47.002Z,1005.12
2022-09-13T07:14:46.964Z,1005.13
2022-09-13T07:15:46.994Z,1005.20
2022-09-13T07:16:46.910Z,1005.19
2022-09-13T07:17:46.861Z,1005.17
2022-09-13T07:18:46.821Z,1005.15
2022-09-13T07:19:46.787Z,1005.13
2022-09-13T07:20:46.750Z,1005.13
2022-09-13T07:21:46.711Z,1005.16
2022-09-13T07:22:46.685Z,1005.17
2022-09-13T07:23:46.639Z,1005.20
2022-09-13T07:24:46.615Z,1005.21
2022-09-13T07:25:46.566Z,1005.21
2022-09-13T07:26:46.533Z,1005.22
2022-09-13T07:27:46.496Z,1005.25
2022-09-13T07:28:46.485Z,1005.27
2022-09-13T07:29:46.423Z,1005.31
2022-09-13T07:30:46.448Z,1005.32
2022-09-13T07:31:46.349Z,1005.32
2022-09-13T07:32:46.314Z,1005.32
2022-09-13T07:33:46.279Z,1005.30
2022-09-13T07:34:46.242Z,1005.33
2022-09-13T07:35:46.206Z,1005.36
2022-09-13T07:36:46.181Z,1005.38
2022-09-13T07:37:46.134Z,1005.37
2022-09-13T07:38:46.203Z,1005.35
2022-09-13T07:39:46.108Z,1005.34
2022-09-13T07:40:46.032Z,1005.35
2022-09-13T07:41:45.991Z,1005.43
2022-09-13T07:42:45.968Z,1005.37
2022-09-13T07:43:45.918Z,1005.46
2022-09-13T07:44:45.882Z,1005.43
2022-09-13T07:45:45.846Z,1005.47
2022-09-13T07:46:45.822Z,1005.56
2022-09-13T07:47:45.774Z,1005.57
2022-09-13T07:48:45.814Z,1005.50
2022-09-13T07:49:45.706Z,1005.51
2022-09-13T07:50:45.668Z,1005.48
2022-09-13T07:51:45.638Z,1005.56
2022-09-13T07:52:45.597Z,1005.48
2022-09-13T07:53:45.563Z,1005.42
2022-09-13T07:54:45.549Z,1005.49
2022-09-13T07:55:45.492Z,1005.50
2022-09-13T07:56:53.540Z,1005.55
2022-09-13T07:57:45.422Z,1005.54
2022-09-13T07:58:45.385Z,1005.49
2022-09-13T07:59:45.351Z,1005.52
2022-09-13T08:00:45.326Z,1005.55
2022-09-13T08:01:45.376Z,1005.58
2022-09-13T08:02:45.288Z,1005.57
2022-09-13T08:03:45.276Z,1005.63
2022-09-13T08:04:45.179Z,1005.61
2022-09-13T08:05:45.141Z,1005.63
2022-09-13T08:06:45.117Z,1005.67
2022-09-13T08:07:45.074Z,1005.70
2022-09-13T08:08:45.034Z,1005.72
2022-09-13T08:09:45.000Z,1005.77
2022-09-13T08:10:49.278Z,1005.84
2022-09-13T08:11:44.933Z,1005.81
2022-09-13T08:12:44.907Z,1005.93
2022-09-13T08:13:44.860Z,1005.85
2022-09-13T08:14:44.829Z,1006.01
2022-09-13T08:15:44.868Z,1005.97
2022-09-13T08:16:44.756Z,1006.07
2022-09-13T08:17:44.721Z,1005.86
2022-09-13T08:18:44.700Z,1005.82
2022-09-13T08:19:44.651Z,1006.05
2022-09-13T08:20:44.621Z,1005.96
2022-09-13T08:21:44.586Z,1005.91
2022-09-13T08:22:44.554Z,1005.94
2022-09-13T08:23:44.519Z,1005.95
2022-09-13T08:24:44.492Z,1005.97
2022-09-13T08:25:44.467Z,1006.13
2022-09-13T08:26:44.416Z,1006.00
2022-09-13T08:27:44.381Z,1006.20
2022-09-13T08:28:44.352Z,1006.22
2022-09-13T08:29:44.312Z,1006.06
2022-09-13T08:30:44.322Z,1005.95
2022-09-13T08:31:44.251Z,1005.97
2022-09-13T08:32:44.217Z,1006.11
2022-09-13T08:33:46.481Z,1006.12
2022-09-13T08:34:44.148Z,1006.05
2022-09-13T08:35:44.120Z,1006.11
2022-09-13T08:36:44.103Z,1006.09
2022-09-13T08:37:44.050Z,1006.11
2022-09-13T08:38:44.018Z,1006.10
2022-09-13T08:39:44.028Z,1006.10
2022-09-13T08:40:43.978Z,1006.09
2022-09-13T08:41:43.923Z,1006.07
2022-09-13T08:42:43.891Z,1006.05
2022-09-13T08:43:43.863Z,1006.06
2022-09-13T08:44:43.890Z,1006.07
2022-09-13T08:45:43.792Z,1006.11
2022-09-13T08:46:43.757Z,1006.14
2022-09-13T08:47:43.720Z,1006.15
2022-09-13T08:48:43.700Z,1006.23
2022-09-13T08:49:43.673Z,1006.24
2022-09-13T08:50:43.639Z,1006.20
2022-09-13T08:51:43.604Z,1006.08
2022-09-13T08:52:43.560Z,1005.95
2022-09-13T08:53:43.530Z,1006.26
2022-09-13T08:54:43.509Z,1006.26
2022-09-13T08:55:43.462Z,1006.27
2022-09-13T08:56:43.436Z,1006.27
2022-09-13T08:57:43.412Z,1006.35
2022-09-13T08:58:43.367Z,1006.35
2022-09-13T08:59:43.335Z,1006.24
2022-09-13T09:00:43.317Z,1006.27
2022-09-13T09:01:43.336Z,1006.28
2022-09-13T09:02:43.262Z,1006.14
2022-09-13T09:03:43.263Z,1006.09
2022-09-13T09:04:43.178Z,1006.13
2022-09-13T09:05:43.175Z,1006.20
2022-09-13T09:06:43.114Z,1006.17
2022-09-13T09:07:43.081Z,1006.24
2022-09-13T09:08:43.049Z,1006.24
2022-09-13T09:09:43.019Z,1006.18
2022-09-13T09:10:42.994Z,1006.21
2022-09-13T09:11:42.974Z,1006.17
2022-09-13T09:12:42.925Z,1006.20
2022-09-13T09:13:42.953Z,1006.12
2022-09-13T09:14:42.863Z,1006.03
2022-09-13T09:15:42.854Z,1006.09
2022-09-13T09:16:42.815Z,1006.07
2022-09-13T09:17:42.773Z,1006.02
2022-09-13T09:18:42.742Z,1006.00
2022-09-13T09:19:42.711Z,1006.01
2022-09-13T09:20:42.680Z,1005.96
2022-09-13T09:21:42.687Z,1005.91
2022-09-13T09:22:42.617Z,1006.00
2022-09-13T09:23:42.679Z,1006.00
2022-09-13T09:24:42.555Z,1006.08
2022-09-13T09:25:42.525Z,1006.06
2022-09-13T09:26:42.495Z,1006.04
2022-09-13T09:27:42.475Z,1005.99
2022-09-13T09:28:42.433Z,1006.03
2022-09-13T09:29:42.402Z,1005.96
2022-09-13T09:30:42.405Z,1005.90
2022-09-13T09:31:42.343Z,1005.93
2022-09-13T09:32:42.329Z,1005.97
2022-09-13T09:33:42.349Z,1005.96
2022-09-13T09:34:42.250Z,1005.91
2022-09-13T09:35:42.218Z,1006.09
2022-09-13T09:36:42.188Z,1006.06
2022-09-13T09:37:42.161Z,1005.89
2022-09-13T09:38:42.134Z,1005.94
2022-09-13T09:39:42.109Z,1005.95
2022-09-13T09:40:42.064Z,1005.97
2022-09-13T09:41:42.031Z,1005.93
2022-09-13T09:42:42.002Z,1005.96
2022-09-13T09:43:42.031Z,1006.09
2022-09-13T09:44:41.942Z,1006.02
2022-09-13T09:45:41.985Z,1006.07
2022-09-13T09:46:41.881Z,1006.10
2022-09-13T09:47:41.850Z,1006.09
2022-09-13T09:48:41.885Z,1006.13
2022-09-13T09:49:41.795Z,1006.06
2022-09-13T09:50:41.757Z,1005.97
2022-09-13T09:51:41.728Z,1006.00
2022-09-13T09:52:41.697Z,1005.92
2022-09-13T09:53:41.677Z,1005.93
2022-09-13T09:54:41.640Z,1005.88
2022-09-13T09:55:41.603Z,1005.87
2022-09-13T09:56:41.575Z,1005.85
2022-09-13T09:57:41.559Z,1005.74
2022-09-13T09:58:41.534Z,1005.61
2022-09-13T09:59:41.487Z,1005.58
2022-09-13T10:00:41.452Z,1005.60
2022-09-13T10:01:41.438Z,1005.57
2022-09-13T10:02:41.415Z,1005.63
2022-09-13T10:03:41.498Z,1005.73
2022-09-13T10:04:41.344Z,1005.78
2022-09-13T10:05:41.302Z,1005.79
2022-09-13T10:06:41.272Z,1005.88
2022-09-13T10:07:41.242Z,1005.88
2022-09-13T10:08:41.211Z,1005.93
2022-09-13T10:09:41.211Z,1005.97
2022-09-13T10:10:41.153Z,1006.01
2022-09-13T10:11:41.118Z,1005.99
2022-09-13T10:12:41.090Z,1006.12
2022-09-13T10:13:41.091Z,1005.98
2022-09-13T10:14:41.042Z,1006.02
2022-09-13T10:15:41.016Z,1005.95
2022-09-13T10:16:41.009Z,1005.91
2022-09-13T10:17:40.946Z,1006.01
2022-09-13T10:18:44.369Z,1006.02
2022-09-13T10:19:40.884Z,1006.03
2022-09-13T10:20:40.848Z,1005.98
2022-09-13T10:21:40.823Z,1005.93
2022-09-13T10:22:40.802Z,1005.97
2022-09-13T10:23:40.759Z,1005.93
2022-09-13T10:24:40.731Z,1005.92
2022-09-13T10:25:43.675Z,1005.96
2022-09-13T10:26:40.680Z,1005.97
2022-09-13T10:27:40.642Z,1005.95
2022-09-13T10:28:40.631Z,1005.95
2022-09-13T10:29:40.585Z,1005.89
2022-09-13T10:30:40.616Z,1005.88
2022-09-13T10:31:40.531Z,1005.80
2022-09-13T10:32:40.499Z,1005.87
2022-09-13T10:33:40.469Z,1005.82
2022-09-13T10:34:40.457Z,1005.82
2022-09-13T10:35:40.412Z,1005.80
2022-09-13T10:36:52.113Z,1005.82
2022-09-13T10:37:40.355Z,1005.81
2022-09-13T10:38:48.605Z,1005.78
2022-09-13T10:39:40.336Z,1005.79
2022-09-13T10:40:40.284Z,1005.79
2022-09-13T10:41:40.242Z,1005.82
2022-09-13T10:42:40.212Z,1005.82
2022-09-13T10:43:40.183Z,1005.81
2022-09-13T10:44:40.160Z,1005.82
2022-09-13T10:45:40.174Z,1005.81
2022-09-13T10:46:40.099Z,1005.78
2022-09-13T10:47:40.070Z,1005.76
2022-09-13T10:48:40.046Z,1005.75
2022-09-13T10:49:40.048Z,1005.72
2022-09-13T10:50:39.987Z,1005.71
2022-09-13T10:51:39.967Z,1005.71
2022-09-13T10:52:39.934Z,1005.73
2022-09-13T10:53:39.906Z,1005.77
2022-09-13T10:54:39.876Z,1005.76
2022-09-13T10:55:39.843Z,1005.74
2022-09-13T10:56:39.817Z,1005.49
2022-09-13T10:57:39.802Z,1005.62
2022-09-13T10:58:39.761Z,1005.39
2022-09-13T10:59:39.729Z,1005.29
2022-09-13T11:00:39.707Z,1005.37
2022-09-13T11:01:40.556Z,1005.57
2022-09-13T11:02:39.647Z,1005.45
2022-09-13T11:03:39.626Z,1005.52
2022-09-13T11:04:39.592Z,1005.39
2022-09-13T11:05:39.565Z,1005.43
2022-09-13T11:06:39.534Z,1005.41
2022-09-13T11:07:39.504Z,1005.43
2022-09-13T11:08:39.492Z,1005.46
2022-09-13T11:09:39.451Z,1005.52
2022-09-13T11:10:39.427Z,1005.57
2022-09-13T11:11:39.393Z,1005.39
2022-09-13T11:12:39.375Z,1005.45
2022-09-13T11:13:41.900Z,1005.42
2022-09-13T11:14:39.319Z,1005.33
2022-09-13T11:15:39.275Z,1005.32
2022-09-13T11:16:39.280Z,1005.30
2022-09-13T11:17:39.218Z,1005.33
2022-09-13T11:18:39.194Z,1005.29
2022-09-13T11:19:39.173Z,1005.30
2022-09-13T11:20:39.140Z,1005.32
2022-09-13T11:21:39.108Z,1005.24
2022-09-13T11:22:39.070Z,1005.31
2022-09-13T11:23:39.042Z,1005.33
2022-09-13T11:24:39.038Z,1005.29
2022-09-13T11:25:38.990Z,1005.27
2022-09-13T11:26:38.950Z,1005.34
2022-09-13T11:27:38.922Z,1005.34
2022-09-13T11:28:38.891Z,1005.34
2022-09-13T11:29:38.861Z,1005.43
2022-09-13T11:30:38.840Z,1005.40
2022-09-13T11:31:38.864Z,1005.42
2022-09-13T11:32:38.771Z,1005.47
2022-09-13T11:33:38.738Z,1005.46
2022-09-13T11:34:38.708Z,1005.40
2022-09-13T11:35:38.684Z,1005.33
2022-09-13T11:36:38.659Z,1005.35
2022-09-13T11:37:38.620Z,1005.27
2022-09-13T11:38:38.590Z,1005.29
2022-09-13T11:39:38.558Z,1005.24
2022-09-13T11:40:38.525Z,1005.26
2022-09-13T11:41:38.508Z,1005.24
2022-09-13T11:42:38.477Z,1005.19
2022-09-13T11:43:38.553Z,1005.19
2022-09-13T11:44:38.407Z,1005.18
2022-09-13T11:45:38.406Z,1005.17
2022-09-13T11:46:38.345Z,1005.12
2022-09-13T11:47:38.318Z,1005.15
2022-09-13T11:48:38.297Z,1005.15
2022-09-13T11:49:38.257Z,1005.14
2022-09-13T11:50:38.230Z,1005.10
2022-09-13T11:51:38.196Z,1005.05
2022-09-13T11:52:38.169Z,1005.03
2022-09-13T11:53:38.138Z,1005.05
2022-09-13T11:54:38.124Z,1005.04
2022-09-13T11:55:38.079Z,1005.00
2022-09-13T11:56:38.114Z,1004.99
2022-09-13T11:57:38.020Z,1005.02
2022-09-13T11:58:37.988Z,1004.97
2022-09-13T11:59:37.960Z,1004.97
2022-09-13T12:00:37.940Z,1004.98
2022-09-13T12:01:37.900Z,1004.95
2022-09-13T12:02:37.942Z,1004.96
2022-09-13T12:03:37.839Z,1004.94
2022-09-13T12:04:37.812Z,1004.96